createdAt,value
2018-12-23T00:00:43.837Z,81.23
2018-12-23T00:02:14.275Z,81.57
2018-12-23T00:03:44.196Z,80.72
2018-12-23T00:05:14.311Z,80.57
2018-12-23T00:06:44.262Z,80.69
2018-12-23T00:08:14.170Z,81.01
2018-12-23T00:09:44.094Z,80.32
2018-12-23T00:11:14.347Z,80.79
2018-12-23T00:12:44.385Z,81.37
2018-12-23T00:14:14.418Z,81.03
2018-12-23T00:15:44.348Z,81.15
2018-12-23T00:17:14.290Z,80.03
2018-12-23T00:18:44.349Z,79.52
2018-12-23T00:20:14.275Z,80.38
2018-12-23T00:21:44.322Z,80.48
2018-12-23T00:23:14.223Z,80.03
2018-12-23T00:24:44.175Z,79.46
2018-12-23T00:26:14.354Z,80.63
2018-12-23T00:27:44.781Z,80.63
2018-12-23T00:29:15.422Z,81.68
2018-12-23T00:30:45.949Z,81.50
2018-12-23T00:32:16.361Z,82.33
2018-12-23T00:33:49.119Z,82.86
2018-12-23T00:35:20.652Z,82.61
2018-12-23T00:36:50.867Z,83.16
2018-12-23T00:38:21.123Z,82.32
2018-12-23T00:39:51.951Z,83.21
2018-12-23T00:41:23.206Z,83.09
2018-12-23T00:42:53.215Z,83.72
2018-12-23T00:44:23.219Z,82.38
2018-12-23T00:45:56.129Z,83.24
2018-12-23T00:47:26.089Z,83.16
2018-12-23T00:48:56.120Z,82.86
2018-12-23T00:50:26.211Z,82.71
2018-12-23T00:51:56.382Z,83.84
2018-12-23T00:53:26.355Z,83.22
2018-12-23T00:54:56.298Z,82.86
2018-12-23T00:56:26.223Z,84.03
2018-12-23T00:57:56.305Z,83.89
2018-12-23T00:59:26.414Z,83.73
2018-12-23T01:00:56.561Z,83.31
2018-12-23T01:02:26.642Z,84.05
2018-12-23T01:03:56.668Z,83.73
2018-12-23T01:05:28.888Z,83.68
2018-12-23T01:06:58.718Z,85.30
2018-12-23T01:08:28.685Z,84.76
2018-12-23T01:09:58.870Z,84.54
2018-12-23T01:11:28.861Z,83.86
2018-12-23T01:12:58.999Z,85.48
2018-12-23T01:14:28.980Z,85.38
2018-12-23T01:15:59.071Z,85.00
2018-12-23T01:17:29.031Z,85.32
2018-12-23T01:18:58.991Z,85.44
2018-12-23T01:20:28.943Z,84.76
2018-12-23T01:21:59.028Z,86.35
2018-12-23T01:23:29.014Z,85.75
2018-12-23T01:24:59.240Z,86.59
2018-12-23T01:26:29.378Z,86.49
2018-12-23T01:27:59.659Z,86.51
2018-12-23T01:29:31.671Z,85.71
2018-12-23T01:31:01.818Z,86.82
2018-12-23T01:32:31.915Z,87.01
2018-12-23T01:34:01.872Z,85.13
2018-12-23T01:35:37.206Z,85.47
2018-12-23T01:37:04.321Z,86.24
2018-12-23T01:38:34.429Z,85.43
2018-12-23T01:40:05.098Z,85.88
2018-12-23T01:41:35.331Z,85.16
2018-12-23T01:43:05.727Z,85.54
2018-12-23T01:44:36.151Z,86.43
2018-12-23T01:46:06.580Z,86.03
2018-12-23T01:47:40.328Z,86.59
2018-12-23T01:49:12.512Z,86.63
2018-12-23T01:50:44.778Z,86.12
2018-12-23T01:52:17.482Z,86.39
2018-12-23T01:53:49.658Z,87.34
2018-12-23T01:55:22.027Z,87.67
2018-12-23T01:56:54.075Z,87.38
2018-12-23T01:58:24.687Z,87.02
2018-12-23T01:59:55.307Z,88.37
2018-12-23T02:01:25.771Z,87.25
2018-12-23T02:02:58.240Z,88.69
2018-12-23T02:04:28.642Z,88.67
2018-12-23T02:05:59.376Z,87.31
2018-12-23T02:07:31.848Z,88.15
2018-12-23T02:09:05.727Z,87.73
2018-12-23T02:10:38.232Z,87.41
2018-12-23T02:12:10.468Z,86.39
2018-12-23T02:13:40.948Z,86.48
2018-12-23T02:15:13.478Z,88.15
2018-12-23T02:16:44.291Z,86.98
2018-12-23T02:18:18.532Z,87.63
2018-12-23T02:19:49.114Z,87.42
2018-12-23T02:21:21.219Z,87.04
2018-12-23T02:22:51.955Z,86.69
2018-12-23T02:24:22.466Z,87.66
2018-12-23T02:25:54.858Z,86.20
2018-12-23T02:27:25.927Z,87.64
2018-12-23T02:28:58.428Z,86.32
2018-12-23T02:30:33.876Z,87.09
2018-12-23T02:32:04.544Z,87.29
2018-12-23T02:33:35.303Z,87.50
2018-12-23T02:35:07.691Z,85.98
2018-12-23T02:36:38.334Z,85.96
2018-12-23T02:38:12.562Z,87.13
2018-12-23T02:39:45.193Z,86.69
2018-12-23T02:41:17.076Z,85.97
2018-12-23T02:42:47.645Z,86.80
2018-12-23T02:44:18.446Z,86.26
2018-12-23T02:45:50.579Z,87.19
2018-12-23T02:47:22.668Z,87.13
2018-12-23T02:48:57.665Z,86.96
2018-12-23T02:50:28.681Z,86.37
2018-12-23T02:51:59.711Z,85.85
2018-12-23T02:53:31.220Z,86.95
2018-12-23T02:55:03.752Z,85.96
2018-12-23T02:56:36.022Z,87.01
2018-12-23T02:58:06.800Z,86.75
2018-12-23T02:59:39.349Z,86.99
2018-12-23T03:01:09.648Z,86.74
2018-12-23T03:02:40.247Z,87.00
2018-12-23T03:04:10.811Z,87.33
2018-12-23T03:05:41.590Z,86.64
2018-12-23T03:07:13.971Z,88.02
2018-12-23T03:08:46.574Z,88.23
2018-12-23T03:10:18.372Z,88.13
2018-12-23T03:16:38.883Z,88.84
2018-12-23T03:18:09.232Z,90.21
2018-12-23T03:19:39.441Z,88.72
2018-12-23T03:21:09.546Z,89.42
2018-12-23T03:22:40.085Z,88.43
2018-12-23T03:24:10.617Z,88.22
2018-12-23T03:25:40.715Z,89.21
2018-12-23T03:27:11.057Z,88.78
2018-12-23T03:28:41.305Z,89.12
2018-12-23T03:30:11.477Z,88.93
2018-12-23T03:31:41.866Z,88.62
2018-12-23T03:33:12.042Z,88.47
2018-12-23T03:34:42.389Z,88.09
2018-12-23T03:36:15.285Z,87.67
2018-12-23T03:37:44.847Z,86.41
2018-12-23T03:39:15.219Z,86.13
2018-12-23T03:40:45.667Z,86.36
2018-12-23T03:42:15.827Z,86.12
2018-12-23T03:43:46.184Z,86.81
2018-12-23T03:45:16.142Z,86.93
2018-12-23T03:46:46.437Z,87.75
2018-12-23T03:48:16.544Z,86.63
2018-12-23T03:49:46.732Z,86.61
2018-12-23T03:51:16.825Z,86.00
2018-12-23T03:52:47.065Z,85.53
2018-12-23T03:54:19.312Z,86.08
2018-12-23T03:55:50.674Z,85.55
2018-12-23T03:57:21.256Z,85.74
2018-12-23T03:58:51.460Z,85.64
2018-12-23T04:00:21.849Z,85.55
2018-12-23T04:01:52.264Z,86.45
2018-12-23T04:03:22.969Z,86.25
2018-12-23T04:04:53.353Z,86.11
2018-12-23T04:06:24.707Z,86.82
2018-12-23T04:07:55.438Z,86.44
2018-12-23T04:09:25.822Z,86.78
2018-12-23T04:10:56.360Z,86.49
2018-12-23T04:12:28.930Z,85.83
2018-12-23T04:13:59.463Z,86.20
2018-12-23T04:15:30.159Z,85.87
2018-12-23T04:17:02.399Z,86.05
2018-12-23T04:18:35.019Z,87.23
2018-12-23T04:20:05.802Z,85.71
2018-12-23T04:21:38.182Z,85.82
2018-12-23T04:23:10.075Z,85.20
2018-12-23T04:24:42.650Z,86.28
2018-12-23T04:26:13.825Z,86.11
2018-12-23T04:27:44.130Z,85.96
2018-12-23T04:29:14.782Z,85.71
2018-12-23T04:30:46.606Z,85.66
2018-12-23T04:32:17.043Z,86.88
2018-12-23T04:33:49.153Z,86.12
2018-12-23T04:35:21.498Z,85.41
2018-12-23T04:36:51.903Z,86.27
2018-12-23T04:38:23.698Z,85.23
2018-12-23T04:39:55.894Z,85.25
2018-12-23T04:41:26.439Z,84.79
2018-12-23T04:42:56.552Z,85.66
2018-12-23T04:44:28.860Z,85.01
2018-12-23T04:45:59.332Z,85.53
2018-12-23T04:47:29.751Z,84.91
2018-12-23T04:49:00.618Z,86.00
2018-12-23T04:50:33.058Z,85.46
2018-12-23T04:52:03.232Z,85.29
2018-12-23T04:53:33.583Z,85.93
2018-12-23T04:55:05.918Z,86.00
2018-12-23T04:56:38.112Z,85.96
2018-12-23T04:58:08.563Z,86.16
2018-12-23T04:59:39.441Z,86.36
2018-12-23T05:01:09.703Z,86.40
2018-12-23T05:02:46.063Z,85.49
2018-12-23T05:04:16.454Z,84.94
2018-12-23T05:05:48.887Z,84.50
2018-12-23T05:07:21.162Z,84.68
2018-12-23T05:08:51.803Z,85.14
2018-12-23T05:10:23.987Z,84.83
2018-12-23T05:11:54.076Z,84.56
2018-12-23T05:13:26.546Z,85.30
2018-12-23T05:14:58.656Z,84.61
2018-12-23T05:16:31.382Z,85.01
2018-12-23T05:18:04.063Z,85.19
2018-12-23T05:19:36.712Z,85.76
2018-12-23T05:21:08.848Z,85.03
2018-12-23T05:22:39.423Z,85.73
2018-12-23T05:24:10.012Z,85.07
2018-12-23T05:25:40.685Z,85.40
2018-12-23T05:27:11.268Z,86.46
2018-12-23T05:28:41.810Z,86.57
2018-12-23T05:30:12.392Z,86.25
2018-12-23T05:31:43.034Z,85.13
2018-12-23T05:33:13.607Z,85.78
2018-12-23T05:34:44.467Z,86.20
2018-12-23T05:36:16.575Z,85.92
2018-12-23T05:37:47.387Z,86.28
2018-12-23T05:39:17.816Z,86.44
2018-12-23T05:40:51.406Z,86.10
2018-12-23T05:42:23.562Z,86.20
2018-12-23T05:43:54.128Z,85.00
2018-12-23T05:45:24.593Z,86.15
2018-12-23T05:46:58.714Z,85.24
2018-12-23T05:48:31.112Z,85.08
2018-12-23T05:50:01.672Z,85.66
2018-12-23T05:51:32.318Z,85.29
2018-12-23T05:53:02.916Z,85.06
2018-12-23T05:54:33.370Z,85.78
2018-12-23T05:56:05.592Z,86.27
2018-12-23T05:57:38.083Z,86.09
2018-12-23T05:59:10.517Z,85.05
2018-12-23T06:00:42.605Z,86.33
2018-12-23T06:02:14.948Z,86.35
2018-12-23T06:03:45.833Z,85.56
2018-12-23T06:05:15.980Z,86.51
2018-12-23T06:06:48.064Z,86.34
2018-12-23T06:08:20.258Z,86.21
2018-12-23T06:09:51.041Z,86.44
2018-12-23T06:11:23.633Z,86.80
2018-12-23T06:12:53.879Z,86.17
2018-12-23T06:14:24.245Z,87.12
2018-12-23T06:15:55.176Z,87.60
2018-12-23T06:17:25.795Z,86.80
2018-12-23T06:18:56.182Z,86.72
2018-12-23T06:20:26.712Z,85.99
2018-12-23T06:21:58.823Z,85.68
2018-12-23T06:23:29.286Z,85.17
2018-12-23T06:24:59.691Z,86.15
2018-12-23T06:26:32.447Z,84.71
2018-12-23T06:28:02.550Z,85.26
2018-12-23T06:29:34.600Z,84.57
2018-12-23T06:31:04.718Z,85.47
2018-12-23T06:32:34.991Z,84.62
2018-12-23T06:34:05.340Z,85.56
2018-12-23T06:35:35.805Z,84.75
2018-12-23T06:37:10.283Z,84.58
2018-12-23T06:38:40.355Z,84.88
2018-12-23T06:40:12.732Z,84.59
2018-12-23T06:41:42.881Z,84.92
2018-12-23T06:43:13.377Z,85.15
2018-12-23T06:44:43.786Z,84.04
2018-12-23T06:46:14.117Z,84.35
2018-12-23T06:47:44.473Z,83.91
2018-12-23T06:49:14.733Z,84.95
2018-12-23T06:50:46.809Z,84.63
2018-12-23T06:52:17.128Z,84.67
2018-12-23T06:53:47.148Z,84.79
2018-12-23T06:55:19.177Z,85.29
2018-12-23T06:56:49.826Z,85.72
2018-12-23T06:58:20.241Z,84.97
2018-12-23T06:59:50.492Z,84.68
2018-12-23T07:01:20.657Z,83.98
2018-12-23T07:02:52.964Z,84.91
2018-12-23T07:04:23.695Z,84.71
2018-12-23T07:05:54.157Z,84.46
2018-12-23T07:07:24.447Z,84.11
2018-12-23T07:08:54.735Z,83.54
2018-12-23T07:10:25.182Z,83.37
2018-12-23T07:11:55.356Z,84.26
2018-12-23T07:13:25.711Z,83.18
2018-12-23T07:14:56.302Z,83.01
2018-12-23T07:16:26.303Z,83.85
2018-12-23T07:17:56.396Z,83.61
2018-12-23T07:19:26.619Z,83.52
2018-12-23T07:20:56.859Z,84.67
2018-12-23T07:22:26.816Z,83.43
2018-12-23T07:23:56.948Z,83.48
2018-12-23T07:25:27.167Z,82.82
2018-12-23T07:26:57.567Z,82.57
2018-12-23T07:28:29.621Z,83.92
2018-12-23T07:29:59.896Z,83.16
2018-12-23T07:31:30.351Z,83.72
2018-12-23T07:33:00.626Z,84.09
2018-12-23T07:34:32.767Z,83.56
2018-12-23T07:36:03.110Z,84.30
2018-12-23T07:37:33.278Z,84.23
2018-12-23T07:39:05.427Z,83.26
2018-12-23T07:40:35.411Z,84.25
2018-12-23T07:42:05.700Z,84.81
2018-12-23T07:43:37.728Z,84.56
2018-12-23T07:45:10.394Z,84.19
2018-12-23T07:46:40.534Z,84.53
2018-12-23T07:48:10.529Z,84.19
2018-12-23T07:49:40.804Z,85.29
2018-12-23T07:51:10.776Z,83.62
2018-12-23T07:52:41.068Z,83.39
2018-12-23T07:54:11.874Z,84.42
2018-12-23T07:55:42.103Z,83.22
2018-12-23T07:57:13.462Z,83.00
2018-12-23T07:58:43.590Z,83.94
2018-12-23T08:00:14.360Z,84.32
2018-12-23T08:01:44.369Z,83.63
2018-12-23T08:03:14.939Z,83.48
2018-12-23T08:04:45.282Z,83.89
2018-12-23T08:06:15.517Z,83.75
2018-12-23T08:07:45.636Z,83.83
2018-12-23T08:09:16.014Z,83.68
2018-12-23T08:10:45.961Z,82.99
2018-12-23T08:12:16.039Z,83.44
2018-12-23T08:13:46.113Z,83.05
2018-12-23T08:15:16.307Z,83.74
2018-12-23T08:16:47.942Z,82.52
2018-12-23T08:19:04.231Z,82.68
2018-12-23T08:20:34.376Z,82.91
2018-12-23T08:22:05.960Z,82.91
2018-12-23T08:23:36.731Z,82.74
2018-12-23T08:25:07.361Z,82.75
2018-12-23T08:26:37.876Z,83.03
2018-12-23T08:28:08.400Z,82.70
2018-12-23T08:29:42.944Z,82.67
2018-12-23T08:31:13.588Z,82.75
2018-12-23T08:32:44.580Z,82.92
2018-12-23T08:34:14.764Z,82.80
2018-12-23T08:35:45.011Z,82.82
2018-12-23T08:37:15.417Z,82.53
2018-12-23T08:38:46.396Z,82.37
2018-12-23T08:41:17.333Z,81.72
2018-12-23T08:42:48.333Z,81.85
2018-12-23T08:44:55.346Z,81.56
2018-12-23T08:46:41.264Z,81.29
2018-12-23T08:48:24.606Z,81.11
2018-12-23T08:49:55.643Z,80.96
2018-12-23T08:51:26.577Z,81.06
2018-12-23T08:53:05.096Z,81.10
2018-12-23T08:54:41.639Z,81.38
2018-12-23T08:56:28.735Z,80.76
2018-12-23T08:57:59.196Z,80.62
2018-12-23T08:59:29.532Z,81.28
2018-12-23T09:01:06.204Z,81.50
2018-12-23T09:02:40.511Z,81.68
2018-12-23T09:04:18.492Z,82.06
2018-12-23T09:05:48.684Z,81.84
2018-12-23T09:07:19.056Z,81.80
2018-12-23T09:08:53.412Z,81.64
2018-12-23T09:10:23.632Z,81.53
2018-12-23T09:11:54.332Z,81.62
2018-12-23T09:13:24.380Z,81.58
2018-12-23T09:14:56.412Z,81.69
2018-12-23T09:16:30.019Z,82.07
2018-12-23T09:18:00.738Z,81.66
2018-12-23T09:19:31.344Z,81.19
2018-12-23T09:21:01.516Z,81.33
2018-12-23T09:22:32.550Z,81.21
2018-12-23T09:24:07.454Z,81.18
2018-12-23T09:25:38.577Z,81.17
2018-12-23T09:27:08.792Z,81.28
2018-12-23T09:28:38.982Z,81.58
2018-12-23T09:30:13.627Z,81.43
2018-12-23T09:31:48.470Z,81.03
2018-12-23T09:33:20.890Z,80.87
2018-12-23T09:34:51.065Z,80.97
2018-12-23T09:36:21.176Z,81.19
2018-12-23T09:37:51.547Z,81.39
2018-12-23T09:39:21.708Z,81.49
2018-12-23T09:40:51.869Z,81.70
2018-12-23T09:42:22.083Z,81.73
2018-12-23T09:43:52.418Z,81.90
2018-12-23T09:45:22.537Z,81.94
2018-12-23T09:46:52.801Z,81.54
2018-12-23T09:48:23.049Z,81.03
2018-12-23T09:49:53.492Z,80.82
2018-12-23T09:51:24.506Z,80.51
2018-12-23T09:52:55.205Z,80.52
2018-12-23T09:54:25.361Z,80.53
2018-12-23T09:55:56.088Z,80.82
2018-12-23T09:57:26.271Z,80.60
2018-12-23T09:58:56.644Z,80.08
2018-12-23T10:00:26.919Z,80.25
2018-12-23T10:02:09.243Z,80.46
2018-12-23T10:03:39.466Z,80.23
2018-12-23T10:05:12.699Z,80.28
2018-12-23T10:06:42.881Z,80.39
2018-12-23T10:08:13.000Z,81.01
2018-12-23T10:09:43.191Z,80.89
2018-12-23T10:11:13.377Z,80.96
2018-12-23T10:12:43.445Z,80.87
2018-12-23T10:14:14.710Z,80.58
2018-12-23T10:15:44.970Z,80.82
2018-12-23T10:17:15.518Z,81.15
2018-12-23T10:18:45.715Z,81.04
2018-12-23T10:20:15.936Z,80.98
2018-12-23T10:21:46.138Z,81.07
2018-12-23T10:23:16.620Z,80.56
2018-12-23T10:24:46.835Z,80.61
2018-12-23T10:26:17.529Z,80.51
2018-12-23T10:27:47.979Z,80.54
2018-12-23T10:29:18.230Z,80.46
2018-12-23T10:30:48.334Z,80.24
2018-12-23T10:32:18.640Z,80.24
2018-12-23T10:33:48.829Z,79.99
2018-12-23T10:35:19.065Z,79.22
2018-12-23T10:36:49.012Z,79.55
2018-12-23T10:38:19.054Z,80.39
2018-12-23T10:39:49.417Z,79.98
2018-12-23T10:41:19.521Z,80.39
2018-12-23T10:42:50.133Z,80.45
2018-12-23T10:44:20.487Z,79.84
2018-12-23T10:45:50.720Z,80.06
2018-12-23T10:47:20.801Z,80.03
2018-12-23T10:50:36.198Z,80.30
2018-12-23T10:52:06.245Z,80.34
2018-12-23T10:53:36.394Z,80.29
2018-12-23T10:55:06.832Z,80.45
2018-12-23T10:56:36.774Z,80.16
2018-12-23T10:58:06.823Z,80.13
2018-12-23T10:59:36.908Z,79.91
2018-12-23T11:01:07.246Z,80.24
2018-12-23T11:02:37.449Z,80.15
2018-12-23T11:04:07.893Z,80.09
2018-12-23T11:05:38.437Z,80.08
2018-12-23T11:07:08.392Z,80.05
2018-12-23T11:08:38.680Z,80.04
2018-12-23T11:10:09.122Z,80.39
2018-12-23T11:11:39.434Z,80.52
2018-12-23T11:13:09.597Z,80.67
2018-12-23T11:14:39.800Z,80.70
2018-12-23T11:16:09.954Z,80.37
2018-12-23T11:17:40.315Z,80.49
2018-12-23T11:19:10.351Z,81.06
2018-12-23T11:20:40.544Z,81.49
2018-12-23T11:22:10.841Z,81.66
2018-12-23T11:23:41.236Z,81.87
2018-12-23T11:25:11.320Z,81.83
2018-12-23T11:26:41.523Z,81.91
2018-12-23T11:28:11.774Z,82.17
2018-12-23T11:29:42.025Z,82.72
2018-12-23T11:31:12.167Z,82.54
2018-12-23T11:32:42.493Z,82.59
2018-12-23T11:34:12.709Z,82.57
2018-12-23T11:35:42.971Z,83.20
2018-12-23T11:37:13.292Z,83.83
2018-12-23T11:38:43.679Z,84.01
2018-12-23T11:40:13.684Z,83.99
2018-12-23T11:41:43.754Z,84.27
2018-12-23T11:43:13.711Z,84.51
2018-12-23T11:44:44.095Z,84.16
2018-12-23T11:46:17.125Z,84.59
2018-12-23T11:47:47.221Z,84.78
2018-12-23T11:49:17.276Z,84.94
2018-12-23T11:50:47.533Z,85.01
2018-12-23T11:52:17.883Z,84.77
2018-12-23T11:53:48.024Z,84.74
2018-12-23T11:55:18.113Z,85.07
2018-12-23T11:56:48.055Z,85.67
2018-12-23T11:58:18.112Z,85.79
2018-12-23T11:59:48.110Z,86.24
2018-12-23T12:01:18.161Z,86.47
2018-12-23T12:02:48.221Z,85.69
2018-12-23T12:04:18.532Z,85.57
2018-12-23T12:05:48.534Z,85.43
2018-12-23T12:07:18.594Z,85.90
2018-12-23T12:08:48.760Z,85.35
2018-12-23T12:10:19.227Z,84.90
2018-12-23T12:11:50.975Z,85.75
2018-12-23T12:13:21.059Z,85.52
2018-12-23T12:14:51.365Z,85.24
2018-12-23T12:16:21.613Z,85.82
2018-12-23T12:17:51.695Z,85.30
2018-12-23T12:19:21.757Z,85.19
2018-12-23T12:20:51.863Z,85.08
2018-12-23T12:22:22.031Z,85.47
2018-12-23T12:23:52.331Z,85.32
2018-12-23T12:25:22.423Z,85.42
2018-12-23T12:26:52.783Z,85.12
2018-12-23T12:28:22.836Z,85.19
2018-12-23T12:29:52.779Z,85.55
2018-12-23T12:31:22.773Z,85.29
2018-12-23T12:32:52.849Z,85.17
2018-12-23T12:34:23.276Z,85.57
2018-12-23T12:35:53.576Z,85.27
2018-12-23T12:37:23.618Z,85.72
2018-12-23T12:38:53.672Z,85.94
2018-12-23T12:40:24.142Z,86.09
2018-12-23T12:41:54.210Z,85.66
2018-12-23T12:43:24.266Z,85.36
2018-12-23T12:44:54.482Z,84.86
2018-12-23T12:46:24.819Z,85.40
2018-12-23T12:47:54.972Z,86.06
2018-12-23T12:49:25.133Z,86.16
2018-12-23T12:50:55.361Z,86.28
2018-12-23T12:52:25.776Z,86.28
2018-12-23T12:53:56.087Z,85.59
2018-12-23T12:55:26.164Z,85.24
2018-12-23T12:56:56.359Z,85.72
2018-12-23T12:58:26.800Z,84.84
2018-12-23T12:59:57.510Z,85.15
2018-12-23T13:01:27.486Z,85.30
2018-12-23T13:02:57.672Z,84.75
2018-12-23T13:04:27.832Z,84.32
2018-12-23T13:05:58.024Z,84.86
2018-12-23T13:07:28.203Z,85.23
2018-12-23T13:09:00.571Z,85.49
2018-12-23T13:10:30.705Z,85.44
2018-12-23T13:12:00.913Z,85.41
2018-12-23T13:13:31.114Z,85.52
2018-12-23T13:15:01.436Z,85.60
2018-12-23T13:16:31.676Z,85.56
2018-12-23T13:18:01.990Z,85.50
2018-12-23T13:19:32.503Z,85.19
2018-12-23T13:21:02.831Z,85.40
2018-12-23T13:22:33.026Z,85.58
2018-12-23T13:24:03.215Z,85.88
2018-12-23T13:25:33.525Z,86.02
2018-12-23T13:27:03.847Z,85.82
2018-12-23T13:28:34.090Z,84.84
2018-12-23T13:30:04.904Z,85.23
2018-12-23T13:31:35.182Z,85.75
2018-12-23T13:33:05.415Z,85.10
2018-12-23T13:34:35.815Z,85.45
2018-12-23T13:36:08.015Z,85.41
2018-12-23T13:37:38.415Z,85.59
2018-12-23T13:39:10.802Z,85.48
2018-12-23T13:41:01.335Z,85.25
2018-12-23T13:43:16.313Z,84.19
2018-12-23T13:45:30.588Z,84.34
2018-12-23T13:47:48.413Z,84.59
2018-12-23T13:49:56.477Z,84.79
2018-12-23T13:51:49.367Z,84.39
2018-12-23T13:54:19.830Z,84.88
2018-12-23T13:56:06.100Z,83.79
2018-12-23T13:58:27.188Z,84.86
2018-12-23T14:00:27.645Z,85.16
2018-12-23T14:02:41.630Z,85.03
2018-12-23T14:04:37.992Z,84.80
2018-12-23T14:06:49.289Z,85.55
2018-12-23T14:09:17.392Z,85.84
2018-12-23T14:11:27.506Z,85.96
2018-12-23T14:12:59.605Z,85.95
2018-12-23T14:14:29.938Z,85.81
2018-12-23T14:16:00.142Z,85.69
2018-12-23T14:17:30.459Z,86.08
2018-12-23T14:19:16.119Z,85.83
2018-12-23T14:20:46.316Z,85.75
2018-12-23T14:22:16.756Z,86.37
2018-12-23T14:23:46.997Z,86.61
2018-12-23T14:25:17.544Z,86.69
2018-12-23T14:26:47.733Z,86.74
2018-12-23T14:28:17.961Z,87.12
2018-12-23T14:29:48.399Z,87.34
2018-12-23T14:31:19.235Z,87.40
2018-12-23T14:32:49.542Z,87.38
2018-12-23T14:34:19.821Z,87.51
2018-12-23T14:35:50.088Z,87.53
2018-12-23T14:37:20.274Z,87.72
2018-12-23T14:38:50.953Z,87.84
2018-12-23T14:40:21.193Z,88.01
2018-12-23T14:41:51.395Z,87.95
2018-12-23T14:43:21.975Z,87.97
2018-12-23T14:44:52.380Z,88.14
2018-12-23T14:46:22.644Z,88.25
2018-12-23T14:47:52.973Z,88.27
2018-12-23T14:49:26.197Z,88.30
2018-12-23T14:50:56.397Z,88.21
2018-12-23T14:52:26.590Z,88.04
2018-12-23T14:53:56.722Z,87.92
2018-12-23T14:55:26.963Z,87.79
2018-12-23T14:56:57.027Z,88.09
2018-12-23T14:58:27.435Z,88.45
2018-12-23T14:59:57.698Z,88.33
2018-12-23T15:01:27.645Z,88.28
2018-12-23T15:02:57.839Z,88.60
2018-12-23T15:04:28.031Z,88.88
2018-12-23T15:05:58.496Z,89.05
2018-12-23T15:07:28.813Z,89.35
2018-12-23T15:08:59.103Z,89.45
2018-12-23T15:10:47.775Z,89.35
2018-12-23T15:12:17.853Z,89.06
2018-12-23T15:13:48.059Z,89.24
2018-12-23T15:15:18.257Z,89.38
2018-12-23T15:16:48.593Z,89.57
2018-12-23T15:18:19.164Z,89.67
2018-12-23T15:19:49.343Z,89.61
2018-12-23T15:21:19.739Z,89.90
2018-12-23T15:22:49.902Z,89.97
2018-12-23T15:24:20.062Z,90.00
2018-12-23T15:25:50.634Z,90.25
2018-12-23T15:27:21.182Z,90.61
2018-12-23T15:28:51.585Z,91.08
2018-12-23T15:30:21.754Z,90.96
2018-12-23T15:31:51.808Z,90.91
2018-12-23T15:33:21.979Z,90.78
2018-12-23T15:34:52.184Z,91.19
2018-12-23T15:36:22.602Z,91.00
2018-12-23T15:37:53.744Z,90.95
2018-12-23T15:39:24.209Z,91.46
2018-12-23T15:40:54.438Z,91.51
2018-12-23T15:42:24.888Z,91.34
2018-12-23T15:43:55.240Z,91.35
2018-12-23T15:45:25.392Z,91.60
2018-12-23T15:46:55.577Z,91.13
2018-12-23T15:48:25.642Z,91.01
2018-12-23T15:49:56.118Z,90.67
2018-12-23T15:51:26.196Z,90.48
2018-12-23T15:52:56.537Z,90.79
2018-12-23T15:54:26.619Z,91.38
2018-12-23T15:55:56.833Z,91.18
2018-12-23T15:57:26.996Z,90.96
2018-12-23T15:58:57.062Z,91.27
2018-12-23T16:00:27.123Z,91.45
2018-12-23T16:01:57.582Z,91.26
2018-12-23T16:03:27.930Z,91.51
2018-12-23T16:04:58.115Z,91.82
2018-12-23T16:06:28.321Z,91.39
2018-12-23T16:07:58.492Z,91.09
2018-12-23T16:09:28.657Z,91.56
2018-12-23T16:10:58.877Z,92.06
2018-12-23T16:12:29.061Z,92.21
2018-12-23T16:13:59.649Z,92.53
2018-12-23T16:15:29.720Z,92.21
2018-12-23T16:16:59.921Z,92.09
2018-12-23T16:18:30.084Z,92.16
2018-12-23T16:20:00.413Z,91.94
2018-12-23T16:21:30.551Z,91.90
2018-12-23T16:23:00.718Z,91.79
2018-12-23T16:24:30.880Z,91.60
2018-12-23T16:26:01.435Z,92.17
2018-12-23T16:27:31.576Z,92.22
2018-12-23T16:29:01.958Z,92.06
2018-12-23T16:30:32.343Z,91.99
2018-12-23T16:32:02.641Z,92.00
2018-12-23T16:33:33.022Z,91.95
2018-12-23T16:35:03.290Z,91.60
2018-12-23T16:36:33.626Z,91.83
2018-12-23T16:38:03.834Z,91.96
2018-12-23T16:39:33.988Z,92.07
2018-12-23T16:41:04.144Z,92.22
2018-12-23T16:42:34.533Z,92.03
2018-12-23T16:44:04.714Z,91.88
2018-12-23T16:45:34.898Z,92.11
2018-12-23T16:47:05.121Z,92.34
2018-12-23T16:48:35.212Z,92.26
2018-12-23T16:50:06.535Z,91.92
2018-12-23T16:51:36.649Z,92.18
2018-12-23T16:53:06.956Z,92.13
2018-12-23T16:54:37.101Z,92.03
2018-12-23T16:56:07.541Z,91.73
2018-12-23T16:57:37.744Z,91.78
2018-12-23T16:59:07.898Z,91.53
2018-12-23T17:00:38.073Z,91.61
2018-12-23T17:02:08.219Z,91.87
2018-12-23T17:03:38.693Z,92.06
2018-12-23T17:05:09.229Z,91.98
2018-12-23T17:06:39.542Z,92.16
2018-12-23T17:08:09.608Z,92.10
2018-12-23T17:09:39.782Z,92.29
2018-12-23T17:11:09.958Z,92.16
2018-12-23T17:12:40.239Z,92.63
2018-12-23T17:14:10.791Z,93.20
2018-12-23T17:15:41.011Z,93.03
2018-12-23T17:17:26.597Z,92.93
2018-12-23T17:18:56.810Z,92.38
2018-12-23T17:20:33.130Z,92.27
2018-12-23T17:22:03.662Z,92.33
2018-12-23T17:23:33.859Z,93.01
2018-12-23T17:25:04.348Z,92.88
2018-12-23T17:26:34.552Z,93.13
2018-12-23T17:28:56.734Z,93.19
2018-12-23T17:30:26.944Z,92.81
2018-12-23T17:31:57.694Z,92.93
2018-12-23T17:33:27.870Z,92.92
2018-12-23T17:34:58.079Z,93.15
2018-12-23T17:36:28.271Z,93.11
2018-12-23T17:37:58.686Z,92.80
2018-12-23T17:39:29.110Z,92.73
2018-12-23T17:40:59.321Z,92.94
2018-12-23T17:42:29.349Z,92.82
2018-12-23T17:43:59.683Z,92.70
2018-12-23T17:45:29.879Z,92.72
2018-12-23T17:47:00.131Z,92.71
2018-12-23T17:48:30.356Z,92.68
2018-12-23T17:50:00.521Z,92.46
2018-12-23T17:51:30.706Z,92.36
2018-12-23T17:53:00.875Z,92.58
2018-12-23T17:54:31.084Z,92.86
2018-12-23T17:56:01.488Z,92.85
2018-12-23T17:57:31.735Z,92.40
2018-12-23T17:59:02.082Z,92.19
2018-12-23T18:00:32.423Z,92.33
2018-12-23T18:02:02.656Z,92.09
2018-12-23T18:03:32.857Z,91.76
2018-12-23T18:05:03.394Z,91.96
2018-12-23T18:06:33.612Z,91.52
2018-12-23T18:08:03.903Z,91.34
2018-12-23T18:09:34.121Z,91.58
2018-12-23T18:11:04.335Z,91.90
2018-12-23T18:12:34.906Z,91.87
2018-12-23T18:14:05.010Z,91.71
2018-12-23T18:15:35.152Z,91.78
2018-12-23T18:17:05.557Z,91.84
2018-12-23T18:18:35.785Z,91.94
2018-12-23T18:20:06.359Z,92.12
2018-12-23T18:21:36.860Z,92.23
2018-12-23T18:23:07.096Z,91.91
2018-12-23T18:24:37.295Z,91.88
2018-12-23T18:26:07.543Z,91.96
2018-12-23T18:27:37.703Z,91.82
2018-12-23T18:29:08.313Z,91.54
2018-12-23T18:30:38.507Z,91.50
2018-12-23T18:32:08.690Z,91.40
2018-12-23T18:33:38.728Z,91.14
2018-12-23T18:35:08.807Z,91.37
2018-12-23T18:36:39.057Z,91.47
2018-12-23T18:38:10.482Z,91.56
2018-12-23T18:47:27.997Z,91.80
2018-12-23T18:48:58.198Z,92.23
2018-12-23T18:50:28.401Z,92.59
2018-12-23T18:51:58.589Z,92.24
2018-12-23T18:53:28.858Z,91.85
2018-12-23T18:54:59.029Z,91.75
2018-12-23T18:56:37.278Z,91.74
2018-12-23T18:58:07.386Z,91.47
2018-12-23T18:59:43.835Z,91.48
2018-12-23T19:01:15.493Z,91.48
2018-12-23T19:02:48.618Z,91.70
2018-12-23T19:04:18.836Z,91.49
2018-12-23T19:05:49.071Z,91.07
2018-12-23T19:07:21.262Z,90.99
2018-12-23T19:09:22.360Z,91.12
2018-12-23T19:11:29.688Z,91.34
2018-12-23T19:13:28.697Z,91.02
2018-12-23T19:15:29.986Z,91.10
2018-12-23T19:17:25.340Z,91.45
2018-12-23T19:19:33.422Z,91.53
2018-12-23T19:21:40.994Z,91.29
2018-12-23T19:24:00.456Z,91.10
2018-12-23T19:26:11.498Z,91.16
2018-12-23T19:27:58.578Z,91.26
2018-12-23T19:30:00.287Z,91.15
2018-12-23T19:31:58.867Z,90.76
2018-12-23T19:33:57.926Z,90.93
2018-12-23T19:35:52.498Z,91.00
2018-12-23T19:38:19.899Z,90.86
2018-12-23T19:40:37.679Z,90.60
2018-12-23T19:42:52.547Z,90.45
2018-12-23T19:45:15.047Z,90.51
2018-12-23T19:47:29.614Z,90.58
2018-12-23T19:49:26.911Z,90.29
2018-12-23T19:52:00.159Z,90.42
2018-12-23T19:53:48.016Z,90.21
2018-12-23T19:55:36.231Z,90.06
2018-12-23T19:57:49.890Z,89.99
2018-12-23T19:59:47.624Z,89.80
2018-12-23T20:01:59.666Z,89.62
2018-12-23T20:04:24.092Z,89.44
2018-12-23T20:06:39.005Z,89.67
2018-12-23T20:08:56.374Z,89.97
2018-12-23T20:10:58.919Z,89.96
2018-12-23T20:13:20.385Z,89.92
2018-12-23T20:15:01.207Z,89.76
2018-12-23T20:17:09.014Z,89.64